Skip Navigation LinksHome page > Weather > Current weather Skip Navigation Links

Current Weather

Indira Gandhi Intl Apt, New Delhi, India

For information only: do not use for flight planning or navigation.
Latest weather
Observation time Friday, September 4, 2015 2:30 AM IST
Local time Friday, September 4, 2015 2:51 AM IST
Flight conditions Instrument Meteorological Conditions
Winds
Wind speed calm
Visibility 1.9 mi.
Present weather haze
Sky condition
Ceiling unlimited
Temperature 84°F
Dewpoint 72°F
Altimeter 29.77 in.Hg
Derived measurements
Relative humidity 66%
Heat index 90°F
Density altitude 2905 ft.
Remarks
No significant changes expected in the next two hours.
METAR VIDP 032100Z 00000KT 3000 HZ NSC 29/22 Q1008 NOSIG

Settings

Location code

InnerDrive.Weather 4.0.5722.1 Release CLR 4.0.30319.34014
Copyright ©2015 Inner Drive Technology. All rights reserved. Portions Copyright ©1986-2015 David Braverman.

Find weather

Site navigation


Skip Navigation Links

Place info

Page info

PayPal - The safer, easier way to pay online!

Return home.

Copyright ©2015 Inner Drive Technology. Purveyors of fine, hand-crafted computer software. Page printed 2015-09-03T21:21:57 UTC.